Time;durP1;ratioP1;P1;durP2;ratioP2;P2;SDS_P1;SDS_P2;PMS_P1;PMS_P2;Temp;Humidity;BMP_temperature;BMP_pressure;BME280_temperature;BME280_humidity;BME280_pressure;Samples;Min_cycle;Max_cycle;Signal;HPM_P1;HPM_P2
2023/04/13 00:01:22;;;;;;;25.23;12.80;;;;;;;11.38;37.66;99003.88;7345874;19;20019;-65
2023/04/13 00:03:47;;;;;;;20.63;12.73;;;;;;;11.45;37.63;98998.84;7345402;19;20015;-66
2023/04/13 00:06:11;;;;;;;24.50;13.43;;;;;;;11.45;37.75;98985.50;7345583;19;20006;-67
2023/04/13 00:08:37;;;;;;;24.73;13.65;;;;;;;11.44;37.71;98994.47;7344528;19;20473;-66
2023/04/13 00:11:03;;;;;;;23.35;14.65;;;;;;;11.46;37.89;99003.22;7345890;19;20015;-67
2023/04/13 00:13:28;;;;;;;21.00;13.15;;;;;;;11.32;38.26;98999.03;7345444;19;20007;-65
2023/04/13 00:15:54;;;;;;;24.95;14.63;;;;;;;11.24;38.17;99002.38;7343854;19;20042;-65
2023/04/13 00:18:19;;;;;;;20.40;13.75;;;;;;;11.16;38.26;99002.19;7346411;19;20018;-65
2023/04/13 00:20:45;;;;;;;23.48;14.07;;;;;;;11.11;38.48;99012.38;7343897;19;20095;-66
2023/04/13 00:23:10;;;;;;;24.08;13.43;;;;;;;11.03;38.51;99009.50;7344089;19;20022;-67
2023/04/13 00:25:34;;;;;;;20.85;12.20;;;;;;;11.02;38.79;99005.16;7344537;19;20120;-66
2023/04/13 00:28:05;;;;;;;21.30;13.65;;;;;;;11.11;38.67;99007.03;7344099;19;20045;-64
2023/04/13 00:30:29;;;;;;;24.85;14.18;;;;;;;11.02;38.65;99018.47;7345631;19;20062;-66
2023/04/13 00:32:55;;;;;;;24.75;14.20;;;;;;;10.98;38.71;99006.38;7345089;19;20014;-67
2023/04/13 00:35:23;;;;;;;25.45;13.15;;;;;;;10.89;38.84;99001.81;7342993;19;20033;-68
2023/04/13 00:37:49;;;;;;;19.80;13.73;;;;;;;10.92;38.78;99009.56;7344933;19;20474;-68
2023/04/13 00:40:18;;;;;;;22.85;13.20;;;;;;;10.84;39.04;99012.00;7342611;19;20008;-68
2023/04/13 00:42:47;;;;;;;24.42;13.68;;;;;;;10.85;39.07;99013.69;7341050;19;20014;-63
2023/04/13 00:45:14;;;;;;;21.15;13.20;;;;;;;10.85;39.31;99014.53;7341413;19;20090;-64
2023/04/13 00:47:47;;;;;;;22.83;12.82;;;;;;;10.85;39.31;99013.69;7342164;19;20014;-65
2023/04/13 00:50:19;;;;;;;21.40;14.50;;;;;;;10.75;39.41;99012.75;7343556;19;20089;-65
2023/04/13 00:52:45;;;;;;;26.63;15.45;;;;;;;10.70;39.54;99007.81;7342031;19;20044;-65
2023/04/13 00:55:11;;;;;;;28.35;14.73;;;;;;;10.69;39.56;99019.44;7342261;19;20017;-73
2023/04/13 00:57:39;;;;;;;23.90;12.55;;;;;;;10.63;39.70;99014.59;7342210;19;20053;-74
2023/04/13 01:00:09;;;;;;;17.10;12.52;;;;;;;10.59;39.76;99012.31;7343036;19;20010;-72
2023/04/13 01:02:35;;;;;;;21.75;14.30;;;;;;;10.58;39.80;99007.97;7346419;19;20010;-68
2023/04/13 01:05:03;;;;;;;24.85;13.27;;;;;;;10.55;40.05;99015.25;7345072;19;20011;-69
2023/04/13 01:07:58;;;;;;;25.15;14.10;;;;;;;10.59;39.72;99012.31;7342469;19;20454;-68
2023/04/13 01:10:29;;;;;;;25.10;14.32;;;;;;;10.51;40.23;99018.25;7345556;19;20489;-62
2023/04/13 01:13:13;;;;;;;23.90;13.93;;;;;;;10.48;40.22;99014.06;7344985;19;20460;-63
2023/04/13 01:16:24;;;;;;;21.17;14.07;;;;;;;10.47;39.76;99016.84;7344649;19;20026;-62
2023/04/13 01:18:53;;;;;;;24.17;14.10;;;;;;;10.38;40.47;99014.91;7343540;19;20092;-63
2023/04/13 01:21:23;;;;;;;21.38;14.43;;;;;;;10.35;40.41;99024.00;7343635;19;20022;-63
2023/04/13 01:24:01;;;;;;;23.55;14.45;;;;;;;10.34;40.48;99016.13;7342532;19;20022;-62
2023/04/13 01:26:37;;;;;;;20.20;13.13;;;;;;;10.32;40.60;99024.25;7342827;19;20014;-63
2023/04/13 01:29:02;;;;;;;28.95;15.00;;;;;;;10.26;40.61;99018.56;7343644;19;20022;-63
2023/04/13 01:31:28;;;;;;;28.48;14.48;;;;;;;10.25;40.68;99020.38;7340405;19;20026;-62
2023/04/13 01:33:53;;;;;;;23.85;13.20;;;;;;;10.23;40.57;99018.81;7342022;19;20058;-63
2023/04/13 01:36:18;;;;;;;24.40;13.73;;;;;;;10.22;40.66;99009.13;7342033;19;20015;-62
2023/04/13 01:38:47;;;;;;;23.98;12.52;;;;;;;10.21;40.57;99007.41;7342899;19;20035;-63
2023/04/13 01:41:14;;;;;;;28.40;14.02;;;;;;;10.18;40.91;99019.16;7342534;19;20101;-62
2023/04/13 01:43:42;;;;;;;20.85;13.02;;;;;;;10.12;40.95;99012.50;7341885;19;20530;-63
2023/04/13 01:46:15;;;;;;;24.02;13.38;;;;;;;10.11;41.11;99010.78;7340007;19;20813;-62
2023/04/13 01:48:54;;;;;;;25.27;12.70;;;;;;;10.08;40.97;99004.84;7340305;19;20019;-64
2023/04/13 01:51:31;;;;;;;26.05;13.57;;;;;;;10.02;40.94;99019.53;7339370;19;20026;-62
2023/04/13 01:54:09;;;;;;;28.65;12.93;;;;;;;10.02;40.88;99016.00;7342198;19;20056;-62
2023/04/13 01:56:38;;;;;;;22.27;12.48;;;;;;;9.94;40.81;99021.06;7344388;19;20015;-62
2023/04/13 01:59:05;;;;;;;23.30;12.88;;;;;;;9.92;41.17;99021.22;7344117;19;20022;-64
2023/04/13 02:01:30;;;;;;;22.25;12.77;;;;;;;9.90;41.06;99023.13;7345141;19;21196;-63
2023/04/13 02:03:56;;;;;;;23.17;12.00;;;;;;;9.84;41.14;99023.59;7345338;19;20094;-62
2023/04/13 02:06:25;;;;;;;23.48;13.93;;;;;;;9.85;41.04;99025.31;7343153;19;20014;-63
2023/04/13 02:08:52;;;;;;;19.23;12.48;;;;;;;9.83;40.99;99024.56;7343435;19;20490;-63
2023/04/13 02:11:18;;;;;;;27.92;12.35;;;;;;;9.84;40.97;99019.13;7343340;19;20346;-66
2023/04/13 02:13:43;;;;;;;26.95;12.75;;;;;;;9.82;40.91;99021.06;7344430;19;20022;-63
2023/04/13 02:16:33;;;;;;;20.15;11.60;;;;;;;9.83;40.96;99016.59;7341954;19;20015;-64
2023/04/13 02:19:00;;;;;;;24.30;12.73;;;;;;;9.80;41.04;99022.16;7343223;19;20359;-63
2023/04/13 02:21:26;;;;;;;23.23;12.93;;;;;;;9.79;41.09;99016.00;7342313;19;20484;-64
2023/04/13 02:23:53;;;;;;;26.95;13.00;;;;;;;9.78;41.27;99016.97;7339015;19;20478;-65
2023/04/13 02:26:20;;;;;;;21.60;12.77;;;;;;;9.75;41.44;99019.84;7341977;19;20006;-62
2023/04/13 02:28:48;;;;;;;18.42;12.20;;;;;;;9.79;41.25;99017.81;7344060;19;20019;-67
2023/04/13 02:31:19;;;;;;;21.42;12.32;;;;;;;9.79;41.26;99016.00;7341436;19;20014;-66
2023/04/13 02:33:45;;;;;;;21.95;12.68;;;;;;;9.80;41.14;99022.16;7342369;19;20485;-69
2023/04/13 02:36:12;;;;;;;33.70;12.63;;;;;;;9.85;41.28;99019.97;7343524;19;20481;-78
2023/04/13 02:38:44;;;;;;;22.73;12.90;;;;;;;9.87;41.06;99022.53;7345600;19;20011;-71
2023/04/13 02:41:21;;;;;;;17.10;11.37;;;;;;;9.91;40.84;99024.84;7341596;19;20010;-66
2023/04/13 02:43:51;;;;;;;18.70;12.50;;;;;;;9.94;40.98;99013.06;7342278;19;20372;-66
2023/04/13 02:46:19;;;;;;;22.77;11.73;;;;;;;9.98;40.70;99015.38;7340098;19;20588;-66
2023/04/13 02:48:47;;;;;;;25.08;13.88;;;;;;;10.02;40.87;99011.53;7341546;19;20018;-66
2023/04/13 02:51:12;;;;;;;20.38;13.48;;;;;;;10.05;41.01;99021.06;7344780;19;20014;-65
2023/04/13 02:53:39;;;;;;;24.08;12.88;;;;;;;10.09;40.65;99015.38;7340292;19;20006;-64
2023/04/13 02:56:06;;;;;;;23.40;12.30;;;;;;;10.14;40.76;99017.69;7340809;19;20011;-65
2023/04/13 02:58:31;;;;;;;24.20;13.13;;;;;;;10.17;40.77;99015.63;7341232;19;20014;-65
2023/04/13 03:01:00;;;;;;;22.13;14.05;;;;;;;10.21;40.40;99018.91;7341135;19;20474;-66
2023/04/13 03:03:26;;;;;;;19.88;13.68;;;;;;;10.26;40.55;99022.09;7342033;19;20373;-65
2023/04/13 03:05:53;;;;;;;21.88;13.45;;;;;;;10.29;40.38;99020.97;7343602;19;20018;-63
2023/04/13 03:08:22;;;;;;;22.08;12.45;;;;;;;10.30;40.06;99026.19;7339207;19;20025;-74
2023/04/13 03:11:05;;;;;;;26.90;13.23;;;;;;;10.40;40.31;99031.59;7338649;19;20063;-66
2023/04/13 03:13:30;;;;;;;21.35;13.10;;;;;;;10.44;40.00;99025.91;7339769;19;20002;-65
2023/04/13 03:15:56;;;;;;;22.90;13.45;;;;;;;10.48;40.16;99032.72;7342524;19;20054;-64
2023/04/13 03:18:23;;;;;;;24.63;13.25;;;;;;;10.54;40.02;99028.69;7336551;19;20485;-65
2023/04/13 03:20:48;;;;;;;22.02;12.93;;;;;;;10.59;39.88;99031.00;7339271;19;20116;-66
2023/04/13 03:23:14;;;;;;;21.85;13.20;;;;;;;10.63;40.26;99032.41;7342449;19;20018;-66
2023/04/13 03:25:39;;;;;;;19.58;12.95;;;;;;;10.67;40.28;99039.19;7342257;19;20493;-68
2023/04/13 03:28:04;;;;;;;24.35;13.55;;;;;;;10.70;40.47;99036.28;7341326;19;20022;-66
2023/04/13 03:30:34;;;;;;;21.92;14.20;;;;;;;10.71;40.56;99035.31;7338499;19;20042;-66
2023/04/13 03:33:00;;;;;;;18.20;12.48;;;;;;;10.74;40.64;99040.38;7339043;19;20465;-63
2023/04/13 03:35:28;;;;;;;20.95;12.48;;;;;;;10.76;40.40;99038.44;7346115;19;20081;-63
2023/04/13 03:37:55;;;;;;;21.52;14.18;;;;;;;10.76;40.54;99033.09;7346443;19;20038;-62
2023/04/13 03:40:29;;;;;;;18.02;12.10;;;;;;;10.78;40.36;99039.16;7346836;19;20091;-71
2023/04/13 03:42:54;;;;;;;24.45;14.02;;;;;;;10.79;40.44;99032.88;7346658;19;20025;-72
2023/04/13 03:45:21;;;;;;;30.60;14.82;;;;;;;10.84;40.62;99036.84;7347583;19;20022;-72
2023/04/13 03:47:47;;;;;;;22.98;13.40;;;;;;;10.86;40.37;99045.56;7348084;19;20020;-80
2023/04/13 03:50:12;;;;;;;27.45;14.80;;;;;;;10.87;40.28;99033.06;7352574;19;20007;-77
2023/04/13 03:52:37;;;;;;;25.77;14.93;;;;;;;10.89;40.54;99044.47;7352252;19;20367;-77
2023/04/13 03:55:02;;;;;;;18.40;12.60;;;;;;;10.86;40.60;99036.72;7352216;19;20051;-79
2023/04/13 03:57:32;;;;;;;25.00;12.82;;;;;;;10.87;40.54;99038.41;7349071;19;20025;-77
2023/04/13 03:59:58;;;;;;;23.50;12.25;;;;;;;10.87;40.61;99036.59;7349978;19;20549;-72
2023/04/13 04:02:39;;;;;;;23.52;13.30;;;;;;;10.91;40.60;99040.72;7354809;19;20034;-75
2023/04/13 04:05:05;;;;;;;23.88;14.00;;;;;;;10.92;40.44;99036.22;7362185;19;20010;-75
2023/04/13 04:07:30;;;;;;;24.33;13.70;;;;;;;10.95;40.66;99035.13;7364429;19;20026;-77
2023/04/13 04:09:59;;;;;;;22.05;13.02;;;;;;;11.08;40.28;99049.13;7368087;19;20018;-76
2023/04/13 04:12:24;;;;;;;23.05;12.73;;;;;;;11.18;40.34;99048.22;7351369;19;20483;-77
2023/04/13 04:14:49;;;;;;;23.85;14.02;;;;;;;11.23;39.95;99047.84;7349740;19;20729;-78
2023/04/13 04:17:20;;;;;;;28.20;14.32;;;;;;;11.35;39.80;99045.97;7352804;19;20019;-75
2023/04/13 04:19:45;;;;;;;25.58;12.48;;;;;;;11.43;39.68;99048.84;7348205;19;20325;-78
2023/04/13 04:22:12;;;;;;;22.60;13.00;;;;;;;11.43;39.66;99043.50;7348531;19;20023;-75
2023/04/13 04:24:41;;;;;;;23.08;13.27;;;;;;;11.42;39.78;99039.13;7346435;19;20038;-77
2023/04/13 04:27:06;;;;;;;24.60;12.48;;;;;;;11.47;39.80;99050.28;7346446;19;20315;-76
2023/04/13 04:29:35;;;;;;;24.50;14.35;;;;;;;11.51;39.63;99041.06;7347703;19;20013;-76
2023/04/13 04:32:13;;;;;;;20.45;13.82;;;;;;;11.50;39.75;99034.88;7346233;19;20019;-78
2023/04/13 04:34:39;;;;;;;22.23;13.52;;;;;;;11.58;39.70;99051.06;7348739;19;20021;-77
2023/04/13 04:37:12;;;;;;;22.80;12.88;;;;;;;11.51;39.58;99057.06;7346940;19;20047;-79
2023/04/13 04:39:43;;;;;;;22.17;13.82;;;;;;;11.53;39.77;99044.41;7345563;19;20010;-80
2023/04/13 04:42:13;;;;;;;22.08;12.85;;;;;;;11.68;39.57;99047.59;7349518;19;20470;-77
2023/04/13 04:44:38;;;;;;;23.60;14.35;;;;;;;11.64;39.95;99045.19;7346793;19;20679;-77
2023/04/13 04:47:12;;;;;;;24.73;13.43;;;;;;;11.81;39.77;99054.47;7344318;19;20010;-77
2023/04/13 04:49:56;;;;;;;29.13;13.07;;;;;;;11.89;39.23;99053.81;7344884;19;20022;-75
2023/04/13 04:52:25;;;;;;;23.90;13.27;;;;;;;11.89;39.62;99043.97;7347419;19;20023;-75
2023/04/13 04:54:53;;;;;;;19.50;12.50;;;;;;;11.98;39.18;99045.00;7344528;19;20031;-76
2023/04/13 04:57:19;;;;;;;23.58;13.40;;;;;;;12.15;39.12;99057.75;7343584;19;20014;-74
2023/04/13 04:59:44;;;;;;;20.85;13.23;;;;;;;12.22;38.99;99042.00;7344564;19;20029;-74
2023/04/13 05:02:10;;;;;;;28.20;14.57;;;;;;;12.31;38.86;99030.50;7343186;19;20378;-75
2023/04/13 05:04:36;;;;;;;22.58;12.13;;;;;;;12.44;38.71;99040.97;7344964;19;20804;-76
2023/04/13 05:07:01;;;;;;;25.48;12.52;;;;;;;12.50;38.79;99035.09;7349534;19;20006;-75
2023/04/13 05:09:29;;;;;;;19.38;13.75;;;;;;;12.59;38.63;99044.97;7345390;19;20474;-70
2023/04/13 05:11:55;;;;;;;28.00;15.00;;;;;;;12.64;38.47;99037.38;7344875;19;20020;-73
2023/04/13 05:14:20;;;;;;;31.58;14.60;;;;;;;12.68;38.23;99036.94;7344861;19;20028;-74
2023/04/13 05:16:45;;;;;;;25.35;13.65;;;;;;;12.69;38.37;99035.13;7344612;19;20018;-75
2023/04/13 05:19:21;;;;;;;37.53;13.70;;;;;;;12.76;38.23;99030.91;7348776;19;20458;-73
2023/04/13 05:21:59;;;;;;;30.27;13.68;;;;;;;12.79;38.19;99027.13;7353259;19;20131;-76
2023/04/13 05:24:24;;;;;;;27.02;14.25;;;;;;;12.86;38.06;99030.94;7353273;19;20014;-75
2023/04/13 05:26:57;;;;;;;20.15;12.98;;;;;;;12.88;38.01;99035.16;7350102;19;20053;-75
2023/04/13 05:29:23;;;;;;;25.20;13.90;;;;;;;12.97;37.98;99033.50;7350072;19;20090;-76
2023/04/13 05:31:47;;;;;;;23.98;13.32;;;;;;;12.97;37.53;99030.81;7346520;19;20056;-76
2023/04/13 05:34:15;;;;;;;30.42;14.55;;;;;;;13.08;37.54;99028.84;7344289;19;20011;-75
2023/04/13 05:36:49;;;;;;;28.25;14.50;;;;;;;13.17;37.59;99021.00;7344463;19;20014;-74
2023/04/13 05:39:14;;;;;;;30.35;13.95;;;;;;;13.25;37.16;99013.94;7345998;19;20025;-75
2023/04/13 05:41:41;;;;;;;25.92;15.10;;;;;;;13.33;37.13;99008.72;7347043;19;20011;-77
2023/04/13 05:44:07;;;;;;;30.92;12.55;;;;;;;13.45;36.71;99015.59;7345527;19;20050;-77
2023/04/13 05:46:36;;;;;;;25.42;12.68;;;;;;;13.63;36.54;99020.25;7343508;19;20006;-77
2023/04/13 05:49:04;;;;;;;37.10;14.02;;;;;;;13.82;36.31;99021.03;7344983;19;20006;-75
2023/04/13 05:51:30;;;;;;;35.83;15.65;;;;;;;14.00;35.95;99023.78;7344390;19;20037;-72
2023/04/13 05:53:56;;;;;;;22.33;12.75;;;;;;;14.28;35.41;99024.69;7341675;19;20039;-73
2023/04/13 05:56:21;;;;;;;28.90;14.00;;;;;;;14.52;35.25;99022.34;7341244;19;20019;-72
2023/04/13 05:58:49;;;;;;;22.58;12.57;;;;;;;14.87;34.67;99018.03;7341137;19;20022;-73
2023/04/13 06:01:19;;;;;;;22.13;12.20;;;;;;;15.15;33.91;99022.31;7345143;19;20062;-72
2023/04/13 06:03:46;;;;;;;18.42;11.57;;;;;;;15.07;33.39;99018.72;7342041;19;20022;-73
2023/04/13 06:06:13;;;;;;;21.83;11.38;;;;;;;15.08;33.52;99009.66;7343574;19;20027;-72
2023/04/13 06:08:40;;;;;;;21.60;11.00;;;;;;;15.16;33.44;99007.03;7344498;19;20030;-72
2023/04/13 06:11:05;;;;;;;28.73;11.60;;;;;;;15.27;32.86;99009.50;7345238;19;20035;-73
2023/04/13 06:13:32;;;;;;;19.58;11.40;;;;;;;15.42;33.03;99015.16;7346950;19;20090;-74
2023/04/13 06:15:59;;;;;;;22.70;11.25;;;;;;;15.48;32.87;99009.16;7341541;19;20027;-73
2023/04/13 06:18:27;;;;;;;20.58;12.05;;;;;;;15.38;32.64;99009.25;7342897;19;20006;-72
2023/04/13 06:20:54;;;;;;;23.98;11.70;;;;;;;15.20;33.27;99001.22;7340174;19;20019;-72
2023/04/13 06:23:19;;;;;;;20.48;11.65;;;;;;;15.22;33.17;99011.81;7343029;19;20482;-72
2023/04/13 06:25:45;;;;;;;19.23;11.55;;;;;;;15.43;32.95;99017.69;7344450;19;20446;-76
2023/04/13 06:28:15;;;;;;;22.58;11.27;;;;;;;15.58;32.62;99007.25;7340626;19;20477;-74
2023/04/13 06:30:42;;;;;;;24.17;11.50;;;;;;;15.53;33.00;99006.88;7342156;19;20070;-77
2023/04/13 06:33:10;;;;;;;25.98;12.48;;;;;;;15.76;32.75;99007.22;7339384;19;20371;-74
2023/04/13 06:38:12;;;;;;;23.15;12.00;;;;;;;16.15;32.16;99012.97;7340294;19;20015;-73
2023/04/13 06:40:45;;;;;;;20.83;11.52;;;;;;;16.43;31.98;99013.63;7340734;19;20038;-72
2023/04/13 06:43:12;;;;;;;26.75;12.02;;;;;;;16.98;31.57;99020.22;7341999;19;20516;-72
2023/04/13 06:45:43;;;;;;;21.02;11.75;;;;;;;17.64;30.66;99015.75;7338938;19;20790;-73
2023/04/13 06:48:21;;;;;;;18.77;11.02;;;;;;;18.32;30.00;99026.06;7339538;19;20473;-73
2023/04/13 06:50:58;;;;;;;18.42;11.45;;;;;;;18.48;29.21;98999.00;7339388;19;20481;-73
2023/04/13 06:53:27;;;;;;;;;;;;;;;18.84;29.51;99020.97;7338630;19;20094;-74
2023/04/13 06:55:52;;;;;;;26.27;11.85;;;;;;;18.48;28.91;99018.75;7340992;19;20331;-73
2023/04/13 06:58:17;;;;;;;14.65;10.85;;;;;;;18.66;29.05;99015.81;7340601;19;20014;-72
2023/04/13 07:00:42;;;;;;;16.80;12.02;;;;;;;18.91;28.44;99015.69;7340491;19;20010;-73
2023/04/13 07:03:08;;;;;;;20.42;12.55;;;;;;;18.94;28.33;99020.75;7340346;19;20046;-73
2023/04/13 07:05:35;;;;;;;19.13;11.07;;;;;;;19.19;28.25;99024.94;7340900;19;20334;-73
2023/04/13 07:08:08;;;;;;;18.98;12.23;;;;;;;19.25;27.77;99021.53;7339023;19;20010;-75
2023/04/13 07:10:39;;;;;;;21.48;12.80;;;;;;;19.23;27.89;99021.72;7339251;19;20035;-74
2023/04/13 07:13:12;;;;;;;22.65;12.38;;;;;;;19.01;27.94;99027.94;7339383;19;20534;-76
2023/04/13 07:15:38;;;;;;;24.25;11.38;;;;;;;18.64;28.01;99030.50;7341366;19;20019;-74
2023/04/13 07:18:04;;;;;;;24.00;12.57;;;;;;;18.21;28.81;99040.75;7341692;19;20019;-75
2023/04/13 07:20:33;;;;;;;20.50;11.57;;;;;;;17.79;29.11;99046.41;7340629;19;20019;-74
2023/04/13 07:23:01;;;;;;;21.63;11.43;;;;;;;17.48;29.38;99031.91;7341074;19;20018;-72
2023/04/13 07:25:27;;;;;;;17.50;11.20;;;;;;;17.29;29.93;99033.06;7340853;19;20018;-73
2023/04/13 07:27:53;;;;;;;20.13;12.18;;;;;;;17.12;30.27;99042.97;7340065;19;20014;-71
2023/04/13 07:30:22;;;;;;;18.38;11.02;;;;;;;16.98;30.30;99044.47;7339552;19;20015;-72
2023/04/13 07:32:49;;;;;;;22.65;11.80;;;;;;;16.83;30.83;99037.16;7339472;19;20370;-74
2023/04/13 07:35:19;;;;;;;22.70;11.73;;;;;;;16.89;30.44;99034.69;7341609;19;20021;-72
2023/04/13 07:37:48;;;;;;;23.88;12.27;;;;;;;16.86;30.98;99035.00;7339498;19;20030;-74
2023/04/13 07:40:22;;;;;;;21.73;10.93;;;;;;;16.81;30.69;99044.59;7340611;19;20106;-72
2023/04/13 07:42:53;;;;;;;21.45;11.38;;;;;;;16.95;30.79;99043.94;7339963;19;20329;-73
2023/04/13 07:47:55;;;;;;;22.42;12.82;;;;;;;17.70;29.80;99032.09;7341956;19;20023;-72
2023/04/13 07:50:21;;;;;;;19.50;11.95;;;;;;;18.39;29.00;99036.00;7346913;19;20015;-74
2023/04/13 07:52:48;;;;;;;18.35;11.13;;;;;;;19.18;28.07;99029.53;7343968;19;20007;-74
2023/04/13 07:55:24;;;;;;;12.93;8.90;;;;;;;19.36;27.91;99036.50;7346155;19;20007;-75
2023/04/13 07:57:58;;;;;;;20.05;13.40;;;;;;;19.04;27.75;99032.16;7344303;19;20013;-74
2023/04/13 08:00:25;;;;;;;20.77;12.48;;;;;;;19.69;27.84;99029.84;7345206;19;20022;-74
2023/04/13 08:02:58;;;;;;;19.10;11.75;;;;;;;20.08;27.08;99012.56;7346732;19;20339;-76
2023/04/13 08:05:36;;;;;;;20.65;10.52;;;;;;;20.06;26.81;99025.44;7346431;19;20696;-74
2023/04/13 08:08:07;;;;;;;;;;;;;;;19.86;26.77;99034.06;7351972;19;20015;-74
2023/04/13 08:10:37;;;;;;;22.88;12.15;;;;;;;18.84;27.92;99027.22;7347804;19;19925;-75
2023/04/13 08:13:05;;;;;;;13.40;10.98;;;;;;;18.56;27.86;99008.91;7348280;19;20086;-74
2023/04/13 08:15:32;;;;;;;17.23;10.88;;;;;;;18.71;28.08;99032.34;7350023;19;20010;-74
2023/04/13 08:17:59;;;;;;;20.58;10.88;;;;;;;18.82;27.76;99029.25;7351995;19;20007;-75
2023/04/13 08:20:28;;;;;;;17.98;10.30;;;;;;;19.27;27.36;99010.56;7343462;19;20033;-74
2023/04/13 08:22:57;;;;;;;18.48;9.70;;;;;;;19.99;26.48;99022.59;7349981;19;20070;-75
2023/04/13 08:25:25;;;;;;;15.70;9.30;;;;;;;21.37;25.78;99008.16;7349079;19;20047;-74
2023/04/13 08:27:54;;;;;;;19.40;10.57;;;;;;;23.19;24.30;99015.16;7354463;19;20013;-74
2023/04/13 08:30:27;;;;;;;15.88;10.15;;;;;;;24.27;23.14;98996.81;7348892;19;20458;-74
2023/04/13 08:33:01;;;;;;;22.65;10.13;;;;;;;24.32;22.44;99000.56;7346896;19;20018;-74
2023/04/13 08:35:37;;;;;;;22.77;10.35;;;;;;;23.44;22.35;98990.94;7349518;19;20022;-76
2023/04/13 08:38:12;;;;;;;16.70;8.45;;;;;;;22.79;23.41;99020.50;7346622;19;20702;-73
2023/04/13 08:40:44;;;;;;;15.27;9.13;;;;;;;21.36;24.64;98994.78;7347245;19;20145;-73
2023/04/13 08:43:16;;;;;;;19.08;10.23;;;;;;;21.05;25.12;99014.06;7346165;19;20070;-74
2023/04/13 08:45:45;;;;;;;24.13;10.15;;;;;;;21.06;25.32;99001.34;7345322;19;20010;-75
2023/04/13 08:48:14;;;;;;;18.60;8.65;;;;;;;21.36;25.06;99011.91;7344611;19;20435;-76
2023/04/13 08:50:49;;;;;;;17.25;9.50;;;;;;;21.18;24.83;99018.78;7350842;19;20382;-75
2023/04/13 08:53:17;;;;;;;13.85;8.77;;;;;;;21.86;24.08;99018.19;7350770;19;20034;-75
2023/04/13 08:55:47;;;;;;;18.52;9.10;;;;;;;22.26;23.35;99023.91;7344022;19;20022;-74
2023/04/13 08:58:19;;;;;;;14.20;9.45;;;;;;;22.12;23.29;99019.47;7346187;19;20124;-72
2023/04/13 09:00:51;;;;;;;14.68;8.73;;;;;;;22.17;23.27;99008.81;7345821;19;20117;-73
2023/04/13 09:03:23;;;;;;;14.98;9.15;;;;;;;22.39;23.21;99013.13;7343469;19;20460;-72
2023/04/13 09:06:03;;;;;;;11.65;7.60;;;;;;;22.57;22.68;99015.34;7344317;19;20010;-77
2023/04/13 09:08:35;;;;;;;12.45;8.60;;;;;;;21.27;23.50;99013.06;7344859;19;20022;-76
2023/04/13 09:13:48;;;;;;;15.82;8.63;;;;;;;20.90;24.77;99016.78;7341511;19;20019;-74
2023/04/13 09:16:18;;;;;;;13.38;7.72;;;;;;;21.83;24.12;99025.88;7346770;19;20353;-75
2023/04/13 09:18:56;;;;;;;16.60;9.15;;;;;;;22.29;23.13;99007.22;7348208;19;20466;-73
2023/04/13 09:21:23;;;;;;;11.82;8.15;;;;;;;23.18;22.80;99027.06;7348577;19;20022;-74
2023/04/13 09:23:55;;;;;;;13.43;7.80;;;;;;;23.56;22.16;99018.41;7346005;19;20043;-75
2023/04/13 09:26:25;;;;;;;14.98;7.82;;;;;;;24.07;21.54;99007.69;7344971;19;20031;-73
2023/04/13 09:28:54;;;;;;;13.10;7.85;;;;;;;24.42;20.99;99021.91;7344445;19;20026;-76
2023/04/13 09:31:21;;;;;;;10.43;6.95;;;;;;;24.32;21.04;99021.50;7343299;19;20011;-75
2023/04/13 09:39:01;;;;;;;12.75;7.05;;;;;;;23.66;21.21;98997.06;7346355;19;20019;-72
2023/04/13 09:41:39;;;;;;;10.23;5.10;;;;;;;24.49;21.04;99012.66;7344183;19;20014;-72
2023/04/13 09:44:26;;;;;;;11.18;7.20;;;;;;;24.12;20.88;99008.75;7343935;19;20027;-74
2023/04/13 09:47:02;;;;;;;11.38;6.20;;;;;;;23.88;21.17;98993.91;7341626;19;20124;-73
2023/04/13 09:49:41;;;;;;;13.80;7.38;;;;;;;25.04;20.80;98988.56;7344728;19;20038;-74
2023/04/13 09:52:24;;;;;;;16.95;7.05;;;;;;;26.56;19.83;98999.06;7344158;19;20019;-76
2023/04/13 09:54:57;;;;;;;17.15;8.27;;;;;;;26.66;19.18;99002.09;7345947;19;20327;-74
2023/04/13 09:57:31;;;;;;;9.70;6.93;;;;;;;27.15;18.86;98999.38;7347323;19;20022;-75
2023/04/13 10:00:00;;;;;;;13.75;6.20;;;;;;;27.59;18.28;98984.44;7345975;19;20027;-75
2023/04/13 10:02:38;;;;;;;10.90;5.75;;;;;;;28.65;17.36;98975.97;7345588;19;20020;-73
2023/04/13 10:05:04;;;;;;;8.25;5.03;;;;;;;29.32;16.76;98983.63;7348496;19;20006;-76
2023/04/13 10:07:35;;;;;;;11.50;6.38;;;;;;;29.32;16.58;98978.13;7350861;19;20493;-74
2023/04/13 10:10:00;;;;;;;8.07;6.28;;;;;;;29.16;16.57;98977.00;7349835;19;20422;-76
2023/04/13 10:12:26;;;;;;;11.20;5.95;;;;;;;28.16;17.09;98994.59;7345595;19;20026;-74
2023/04/13 10:15:20;;;;;;;8.10;5.97;;;;;;;26.82;17.81;98969.72;7350409;19;20066;-74
2023/04/13 10:18:08;;;;;;;9.00;5.70;;;;;;;24.61;19.79;98978.22;7346671;19;20525;-74
2023/04/13 10:20:34;;;;;;;8.93;4.78;;;;;;;23.25;20.42;98970.81;7348952;19;20076;-75
2023/04/13 10:22:59;;;;;;;10.85;5.30;;;;;;;22.49;21.06;98975.56;7346239;19;20331;-73
2023/04/13 10:25:25;;;;;;;11.60;5.93;;;;;;;21.87;21.49;98976.44;7343547;19;20029;-76
2023/04/13 10:28:04;;;;;;;8.07;4.93;;;;;;;21.40;22.31;98977.09;7351433;19;20035;-75
2023/04/13 10:30:46;;;;;;;14.13;4.97;;;;;;;21.15;22.22;98967.66;7350246;19;20360;-76
2023/04/13 10:33:12;;;;;;;8.73;5.10;;;;;;;20.71;22.74;98975.94;7352296;19;20152;-73
2023/04/13 10:35:39;;;;;;;7.72;5.30;;;;;;;20.33;22.94;98991.44;7354652;19;20022;-75
2023/04/13 10:38:09;;;;;;;10.10;4.95;;;;;;;20.03;23.41;98971.69;7349954;19;20023;-74
2023/04/13 10:40:45;;;;;;;8.95;4.55;;;;;;;19.80;23.78;98969.03;7353105;19;20461;-72
2023/04/13 10:43:30;;;;;;;9.07;4.82;;;;;;;19.62;23.76;98965.88;7357823;19;20015;-74
2023/04/13 10:46:07;;;;;;;11.88;5.32;;;;;;;19.41;24.18;98980.03;7358579;19;20023;-72
2023/04/13 10:48:32;;;;;;;11.25;5.40;;;;;;;19.08;24.54;98969.47;7362100;19;20003;-73
2023/04/13 10:50:58;;;;;;;7.85;5.03;;;;;;;19.01;24.57;98973.91;7364735;19;20027;-75
2023/04/13 10:53:29;;;;;;;6.80;4.68;;;;;;;19.02;24.79;98986.41;7362686;19;20013;-73
2023/04/13 10:55:54;;;;;;;9.25;4.97;;;;;;;19.14;24.74;98984.97;7364755;19;20023;-74
2023/04/13 10:58:21;;;;;;;11.48;6.05;;;;;;;18.81;25.37;98972.72;7364232;19;20375;-75
2023/04/13 11:00:51;;;;;;;9.52;5.38;;;;;;;18.58;25.40;98993.44;7361822;19;20018;-73
2023/04/13 11:03:20;;;;;;;12.32;5.28;;;;;;;18.58;25.17;98993.44;7350587;19;20043;-73
2023/04/13 11:05:56;;;;;;;7.18;3.92;;;;;;;18.46;25.44;99022.63;7344377;19;20006;-75
2023/04/13 11:08:25;;;;;;;12.50;6.00;;;;;;;18.09;25.92;98993.56;7343032;19;20010;-76
2023/04/13 11:10:56;;;;;;;9.85;5.50;;;;;;;17.90;26.60;98994.81;7344848;19;20458;-76
2023/04/13 11:13:28;;;;;;;8.90;5.28;;;;;;;17.96;26.28;98983.31;7340192;19;20363;-75
2023/04/13 11:16:04;;;;;;;11.68;5.72;;;;;;;18.08;25.76;98994.59;7343421;19;20021;-74
2023/04/13 11:18:32;;;;;;;8.93;5.50;;;;;;;17.89;26.46;99003.06;7360333;19;20003;-74
2023/04/13 11:21:02;;;;;;;10.93;5.50;;;;;;;18.04;26.03;98995.97;7365775;19;20030;-73
2023/04/13 11:23:27;;;;;;;8.80;4.28;;;;;;;18.18;25.70;98989.84;7358375;19;20011;-71
2023/04/13 11:25:56;;;;;;;10.40;5.63;;;;;;;18.02;26.03;98993.44;7354911;19;20010;-73
2023/04/13 11:28:25;;;;;;;6.03;4.32;;;;;;;18.19;25.93;99002.31;7345890;19;20010;-75
2023/04/13 11:30:57;;;;;;;3.85;3.42;;;;;;;18.38;25.49;98988.44;7348169;19;20033;-74
2023/04/13 11:33:29;;;;;;;6.47;5.20;;;;;;;17.87;25.99;98986.22;7345828;19;20102;-74
2023/04/13 11:35:55;;;;;;;7.53;5.57;;;;;;;17.70;26.36;98977.34;7344256;19;20014;-72
2023/04/13 11:38:21;;;;;;;14.45;5.10;;;;;;;17.81;26.19;98976.13;7348711;19;20027;-72
2023/04/13 11:40:46;;;;;;;11.82;4.57;;;;;;;17.97;25.60;98985.00;7342537;19;20035;-72
2023/04/13 11:43:13;;;;;;;11.82;5.00;;;;;;;17.95;25.67;98975.41;7341415;19;20011;-70
2023/04/13 11:45:42;;;;;;;5.32;3.88;;;;;;;17.95;25.68;98994.28;7338366;19;20077;-68